Time;durP1;ratioP1;P1;durP2;ratioP2;P2;SDS_P1;SDS_P2;PMS_P1;PMS_P2;Temp;Humidity;BMP_temperature;BMP_pressure;BME280_temperature;BME280_humidity;BME280_pressure;Samples;Min_cycle;Max_cycle;Signal;HPM_P1;HPM_P2
2023/06/18 00:01:57;;;;;;;8.88;5.38;;;;;;;;;;5068752;27;98290;-74
2023/06/18 00:04:25;;;;;;;9.50;5.40;;;;;;;;;;5067425;27;98545;-74
2023/06/18 00:06:52;;;;;;;10.98;5.10;;;;;;;;;;5085542;27;100117;-74
2023/06/18 00:09:19;;;;;;;6.30;5.45;;;;;;;;;;5092124;27;98930;-74
2023/06/18 00:11:45;;;;;;;8.57;5.38;;;;;;;;;;5086067;27;99712;-74
2023/06/18 00:14:12;;;;;;;8.73;5.18;;;;;;;;;;5088210;27;98259;-74
2023/06/18 00:16:38;;;;;;;8.38;5.07;;;;;;;;;;5087198;27;98931;-74
2023/06/18 00:19:05;;;;;;;7.78;4.93;;;;;;;;;;5089112;27;100141;-74
2023/06/18 00:21:31;;;;;;;5.50;5.00;;;;;;;;;;5088509;27;98438;-74
2023/06/18 00:23:58;;;;;;;6.15;4.72;;;;;;;;;;5087771;27;98737;-74
2023/06/18 00:26:25;;;;;;;6.60;4.85;;;;;;;;;;5088305;27;98895;-74
2023/06/18 00:28:52;;;;;;;9.52;5.55;;;;;;;;;;5088299;27;98280;-74
2023/06/18 00:31:19;;;;;;;10.88;4.95;;;;;;;;;;5090543;27;98483;-74
2023/06/18 00:33:45;;;;;;;6.45;4.72;;;;;;;;;;5089540;27;98526;-73
2023/06/18 00:36:12;;;;;;;6.00;4.78;;;;;;;;;;5076438;27;98386;-74
2023/06/18 00:38:43;;;;;;;13.48;5.57;;;;;;;;;;5067855;27;98748;-74
2023/06/18 00:41:10;;;;;;;6.50;4.70;;;;;;;;;;5049227;27;98501;-74
2023/06/18 00:43:36;;;;;;;5.32;4.88;;;;;;;;;;5068864;27;98906;-74
2023/06/18 00:46:04;;;;;;;9.07;4.53;;;;;;;;;;5053784;27;99961;-74
2023/06/18 00:48:31;;;;;;;5.63;5.13;;;;;;;;;;5050781;27;98506;-74
2023/06/18 00:50:58;;;;;;;10.05;5.25;;;;;;;;;;5049929;27;98577;-74
2023/06/18 00:53:25;;;;;;;11.88;5.00;;;;;;;;;;5052750;27;101521;-74
2023/06/18 00:55:52;;;;;;;6.03;4.82;;;;;;;;;;5051745;27;99435;-74
2023/06/18 00:58:23;;;;;;;9.15;4.97;;;;;;;;;;5068518;27;98999;-74
2023/06/18 01:00:53;;;;;;;5.70;5.00;;;;;;;;;;5067809;27;98207;-74
2023/06/18 01:03:21;;;;;;;7.80;5.50;;;;;;;;;;5068665;27;98608;-75
2023/06/18 01:05:50;;;;;;;8.40;5.25;;;;;;;;;;5048511;27;100560;-74
2023/06/18 01:08:23;;;;;;;10.77;5.50;;;;;;;;;;5067518;27;98311;-74
2023/06/18 01:11:05;;;;;;;5.03;4.47;;;;;;;;;;5068341;27;98671;-74
2023/06/18 01:13:36;;;;;;;13.00;4.85;;;;;;;;;;5066545;27;99212;-74
2023/06/18 01:16:04;;;;;;;5.45;4.80;;;;;;;;;;5071079;27;98093;-74
2023/06/18 01:18:35;;;;;;;6.10;5.30;;;;;;;;;;5049248;27;98913;-74
2023/06/18 01:21:05;;;;;;;7.00;4.93;;;;;;;;;;5066931;27;98029;-75
2023/06/18 01:23:45;;;;;;;6.03;5.38;;;;;;;;;;5068511;27;98293;-75
2023/06/18 01:26:12;;;;;;;5.55;4.55;;;;;;;;;;5067298;27;99992;-74
2023/06/18 01:28:40;;;;;;;6.18;5.43;;;;;;;;;;5067051;27;98552;-74
2023/06/18 01:31:06;;;;;;;6.10;5.13;;;;;;;;;;5067027;27;98423;-75
2023/06/18 01:33:34;;;;;;;5.43;4.88;;;;;;;;;;5067790;27;98886;-74
2023/06/18 01:36:01;;;;;;;7.25;5.50;;;;;;;;;;5070371;27;98469;-75
2023/06/18 01:38:38;;;;;;;7.45;4.95;;;;;;;;;;5067548;27;98874;-74
2023/06/18 01:41:13;;;;;;;7.95;5.55;;;;;;;;;;5048288;27;98499;-75
2023/06/18 01:43:46;;;;;;;6.63;5.05;;;;;;;;;;5067869;27;98953;-75
2023/06/18 01:46:14;;;;;;;6.25;5.22;;;;;;;;;;5048741;27;100063;-75
2023/06/18 01:48:45;;;;;;;12.25;5.53;;;;;;;;;;5068496;27;99216;-74
2023/06/18 01:51:13;;;;;;;12.67;5.40;;;;;;;;;;5071055;27;99408;-75
2023/06/18 01:53:40;;;;;;;7.85;5.53;;;;;;;;;;5057151;27;98977;-75
2023/06/18 01:56:09;;;;;;;9.25;4.60;;;;;;;;;;5075307;27;98491;-74
2023/06/18 01:58:41;;;;;;;8.65;5.22;;;;;;;;;;5075881;27;100611;-74
2023/06/18 02:01:11;;;;;;;7.95;5.00;;;;;;;;;;5073098;27;98208;-75
2023/06/18 02:03:38;;;;;;;9.15;5.95;;;;;;;;;;5069576;27;100377;-74
2023/06/18 02:06:05;;;;;;;7.35;5.28;;;;;;;;;;5089731;27;98972;-75
2023/06/18 02:08:32;;;;;;;7.35;5.70;;;;;;;;;;5091938;27;98221;-75
2023/06/18 02:10:58;;;;;;;5.45;4.97;;;;;;;;;;5090701;27;99711;-75
2023/06/18 02:13:25;;;;;;;7.75;5.70;;;;;;;;;;5091628;27;99848;-74
2023/06/18 02:15:52;;;;;;;9.00;5.32;;;;;;;;;;5072432;27;98308;-75
2023/06/18 02:18:18;;;;;;;6.82;6.20;;;;;;;;;;5071151;27;100600;-75
2023/06/18 02:20:45;;;;;;;6.30;5.55;;;;;;;;;;5074979;27;99113;-74
2023/06/18 02:23:12;;;;;;;8.07;5.68;;;;;;;;;;5089355;27;98393;-75
2023/06/18 02:25:39;;;;;;;6.70;5.63;;;;;;;;;;5073242;27;101318;-75
2023/06/18 02:28:06;;;;;;;6.80;5.72;;;;;;;;;;5091654;27;98520;-75
2023/06/18 02:30:33;;;;;;;8.73;6.18;;;;;;;;;;5090988;27;98488;-74
2023/06/18 02:33:02;;;;;;;6.55;5.63;;;;;;;;;;5090919;27;99949;-75
2023/06/18 02:35:29;;;;;;;7.53;5.15;;;;;;;;;;5092885;27;98505;-74
2023/06/18 02:37:56;;;;;;;6.03;5.47;;;;;;;;;;5090956;27;98877;-75
2023/06/18 02:40:22;;;;;;;11.40;6.25;;;;;;;;;;5072281;27;100864;-74
2023/06/18 02:42:50;;;;;;;7.53;5.95;;;;;;;;;;5094688;27;98184;-74
2023/06/18 02:45:17;;;;;;;6.25;5.75;;;;;;;;;;5070126;27;101347;-74
2023/06/18 02:47:44;;;;;;;5.90;5.40;;;;;;;;;;5090980;27;98311;-74
2023/06/18 02:50:11;;;;;;;13.10;6.07;;;;;;;;;;5071983;27;99658;-75
2023/06/18 02:52:39;;;;;;;5.57;5.25;;;;;;;;;;5089446;27;98978;-74
2023/06/18 02:55:06;;;;;;;5.78;5.28;;;;;;;;;;5056177;27;98515;-74
2023/06/18 02:57:33;;;;;;;5.78;5.28;;;;;;;;;;5070193;27;98799;-75
2023/06/18 03:00:00;;;;;;;10.38;5.88;;;;;;;;;;5069017;27;99849;-75
2023/06/18 03:02:27;;;;;;;6.20;5.38;;;;;;;;;;5051717;27;98650;-74
2023/06/18 03:04:56;;;;;;;7.38;5.97;;;;;;;;;;5054357;27;98644;-75
2023/06/18 03:07:23;;;;;;;5.70;5.20;;;;;;;;;;5050423;27;98290;-75
2023/06/18 03:09:49;;;;;;;8.65;5.55;;;;;;;;;;5050928;27;99860;-74
2023/06/18 03:12:16;;;;;;;5.90;5.35;;;;;;;;;;5050816;27;102206;-75
2023/06/18 03:14:43;;;;;;;11.10;5.47;;;;;;;;;;5050543;27;98317;-75
2023/06/18 03:17:10;;;;;;;5.97;5.38;;;;;;;;;;5051053;27;100741;-74
2023/06/18 03:19:37;;;;;;;11.10;5.85;;;;;;;;;;5050510;27;99926;-75
2023/06/18 03:22:05;;;;;;;9.45;6.07;;;;;;;;;;5069574;27;98553;-75
2023/06/18 03:24:33;;;;;;;7.32;5.03;;;;;;;;;;5060545;27;99740;-75
2023/06/18 03:27:00;;;;;;;13.07;5.40;;;;;;;;;;5053692;27;98360;-75
2023/06/18 03:29:30;;;;;;;7.00;5.40;;;;;;;;;;5069935;27;98315;-73
2023/06/18 03:31:57;;;;;;;7.00;5.00;;;;;;;;;;5050014;27;101299;-73
2023/06/18 03:34:24;;;;;;;6.20;5.60;;;;;;;;;;5049503;27;98385;-75
2023/06/18 03:36:51;;;;;;;5.82;5.32;;;;;;;;;;5051115;27;99403;-74
2023/06/18 03:39:20;;;;;;;6.13;5.47;;;;;;;;;;5050588;27;101719;-75
2023/06/18 03:41:46;;;;;;;7.60;5.50;;;;;;;;;;5050744;27;98822;-75
2023/06/18 03:44:14;;;;;;;5.97;5.50;;;;;;;;;;5050872;27;98482;-75
2023/06/18 03:46:40;;;;;;;6.13;5.47;;;;;;;;;;5054160;27;102123;-75
2023/06/18 03:49:07;;;;;;;6.18;5.57;;;;;;;;;;5049934;27;98653;-75
2023/06/18 03:51:33;;;;;;;7.63;5.82;;;;;;;;;;5069598;27;99242;-74
2023/06/18 03:54:00;;;;;;;7.85;6.28;;;;;;;;;;5050464;27;99106;-75
2023/06/18 03:56:28;;;;;;;9.27;5.82;;;;;;;;;;5050266;27;101298;-75
2023/06/18 03:58:55;;;;;;;6.28;5.75;;;;;;;;;;5049941;27;101910;-74
2023/06/18 04:01:22;;;;;;;10.43;6.05;;;;;;;;;;5050802;27;98223;-73
2023/06/18 04:03:48;;;;;;;6.38;5.63;;;;;;;;;;5068617;27;98607;-75
2023/06/18 04:06:15;;;;;;;7.03;5.93;;;;;;;;;;5049756;27;101338;-75
2023/06/18 04:08:44;;;;;;;9.93;8.32;;;;;;;;;;5072497;27;98575;-73
2023/06/18 04:11:13;;;;;;;8.80;5.38;;;;;;;;;;5049580;27;100059;-76
2023/06/18 04:13:40;;;;;;;9.27;6.43;;;;;;;;;;5049950;27;98302;-76
2023/06/18 04:16:09;;;;;;;7.85;5.72;;;;;;;;;;5049649;27;100645;-75
2023/06/18 04:18:36;;;;;;;6.80;5.35;;;;;;;;;;5069019;27;98768;-75
2023/06/18 04:21:03;;;;;;;11.25;5.97;;;;;;;;;;5049967;27;98272;-75
2023/06/18 04:23:32;;;;;;;7.72;5.55;;;;;;;;;;5049135;27;98348;-74
2023/06/18 04:25:59;;;;;;;12.70;6.47;;;;;;;;;;5049857;27;101601;-75
2023/06/18 04:28:26;;;;;;;13.27;5.28;;;;;;;;;;5050467;27;98580;-75
2023/06/18 04:30:53;;;;;;;7.68;5.63;;;;;;;;;;5052585;27;98939;-75
2023/06/18 04:33:21;;;;;;;7.15;6.28;;;;;;;;;;5050140;27;98249;-75
2023/06/18 04:35:48;;;;;;;8.48;6.22;;;;;;;;;;5050176;27;98323;-75
2023/06/18 04:38:14;;;;;;;10.25;6.25;;;;;;;;;;5048979;27;100428;-75
2023/06/18 04:40:42;;;;;;;6.63;5.85;;;;;;;;;;5050345;27;98259;-75
2023/06/18 04:43:09;;;;;;;7.03;6.32;;;;;;;;;;5049997;27;101192;-75
2023/06/18 04:45:39;;;;;;;7.72;6.38;;;;;;;;;;5048963;27;101694;-75
2023/06/18 04:48:07;;;;;;;6.43;5.93;;;;;;;;;;5048159;27;98548;-74
2023/06/18 04:50:35;;;;;;;9.07;5.78;;;;;;;;;;5050218;27;101559;-74
2023/06/18 04:53:02;;;;;;;8.30;5.63;;;;;;;;;;5052366;27;99884;-75
2023/06/18 04:55:29;;;;;;;8.32;6.25;;;;;;;;;;5086424;27;98337;-75
2023/06/18 04:57:56;;;;;;;10.13;6.45;;;;;;;;;;5069528;27;101485;-75
2023/06/18 05:00:22;;;;;;;9.35;6.20;;;;;;;;;;5089144;27;98296;-74
2023/06/18 05:02:51;;;;;;;10.60;7.20;;;;;;;;;;5070356;27;100483;-74
2023/06/18 05:05:18;;;;;;;10.63;7.40;;;;;;;;;;5069309;27;101563;-74
2023/06/18 05:07:47;;;;;;;7.93;6.18;;;;;;;;;;5066703;27;98372;-74
2023/06/18 05:10:13;;;;;;;9.95;6.45;;;;;;;;;;5068035;27;98236;-74
2023/06/18 05:12:42;;;;;;;18.25;6.68;;;;;;;;;;5065242;27;100815;-74
2023/06/18 05:15:08;;;;;;;9.95;6.05;;;;;;;;;;5069257;27;98434;-74
2023/06/18 05:17:35;;;;;;;10.13;6.63;;;;;;;;;;5066672;27;100040;-74
2023/06/18 05:20:05;;;;;;;11.30;6.70;;;;;;;;;;5065724;27;98326;-74
2023/06/18 05:22:33;;;;;;;8.68;6.65;;;;;;;;;;5067683;27;98504;-74
2023/06/18 05:25:01;;;;;;;9.95;7.13;;;;;;;;;;5050132;27;98972;-74
2023/06/18 05:27:28;;;;;;;15.20;6.63;;;;;;;;;;5045177;27;98245;-74
2023/06/18 05:29:56;;;;;;;16.17;6.47;;;;;;;;;;5045976;27;100621;-73
2023/06/18 05:32:22;;;;;;;9.10;6.53;;;;;;;;;;5045931;27;99154;-73
2023/06/18 05:34:50;;;;;;;8.88;6.65;;;;;;;;;;5048601;27;98251;-75
2023/06/18 05:37:16;;;;;;;7.50;6.63;;;;;;;;;;5046110;27;99847;-75
2023/06/18 05:39:43;;;;;;;8.82;6.47;;;;;;;;;;5047384;27;98213;-75
2023/06/18 05:42:11;;;;;;;8.32;6.38;;;;;;;;;;5044732;27;98632;-75
2023/06/18 05:44:37;;;;;;;12.68;7.38;;;;;;;;;;5047421;27;99036;-75
2023/06/18 05:47:04;;;;;;;11.77;6.55;;;;;;;;;;5045454;27;98636;-74
2023/06/18 05:49:32;;;;;;;8.15;6.88;;;;;;;;;;5045332;27;100997;-74
2023/06/18 05:52:00;;;;;;;7.05;6.32;;;;;;;;;;5045279;27;98934;-75
2023/06/18 05:54:26;;;;;;;10.18;6.53;;;;;;;;;;5045115;27;98313;-75
2023/06/18 05:56:53;;;;;;;7.10;6.35;;;;;;;;;;5048571;27;101328;-75
2023/06/18 05:59:20;;;;;;;7.00;6.20;;;;;;;;;;5045736;27;98570;-74
2023/06/18 06:01:53;;;;;;;10.35;6.53;;;;;;;;;;5044219;27;98731;-74
2023/06/18 06:04:23;;;;;;;10.32;6.82;;;;;;;;;;5045002;27;101421;-75
2023/06/18 06:06:49;;;;;;;7.90;6.55;;;;;;;;;;5054499;27;98616;-74
2023/06/18 06:09:16;;;;;;;6.97;6.35;;;;;;;;;;5047721;27;101204;-74
2023/06/18 06:11:43;;;;;;;10.05;7.88;;;;;;;;;;5047946;27;101347;-74
2023/06/18 06:14:11;;;;;;;8.65;7.10;;;;;;;;;;5048710;27;98423;-74
2023/06/18 06:16:39;;;;;;;10.93;6.93;;;;;;;;;;5048167;27;100876;-74
2023/06/18 06:19:06;;;;;;;13.48;6.72;;;;;;;;;;5052137;27;101793;-74
2023/06/18 06:21:33;;;;;;;11.60;7.93;;;;;;;;;;5049079;27;98634;-75
2023/06/18 06:24:01;;;;;;;7.70;7.00;;;;;;;;;;5047385;27;101023;-75
2023/06/18 06:26:28;;;;;;;14.23;7.72;;;;;;;;;;5048096;27;98294;-75
2023/06/18 06:28:54;;;;;;;15.73;7.82;;;;;;;;;;5048187;27;98800;-75
2023/06/18 06:31:21;;;;;;;7.68;6.82;;;;;;;;;;5047961;27;101789;-75
2023/06/18 06:33:47;;;;;;;10.73;7.40;;;;;;;;;;5048128;27;98325;-75
2023/06/18 06:36:14;;;;;;;13.40;7.10;;;;;;;;;;5070289;27;98618;-74
2023/06/18 06:38:41;;;;;;;9.90;7.00;;;;;;;;;;5051250;27;100284;-74
2023/06/18 06:41:07;;;;;;;10.35;7.85;;;;;;;;;;5066486;27;98350;-74
2023/06/18 06:43:37;;;;;;;9.32;7.32;;;;;;;;;;5090528;27;99798;-75
2023/06/18 06:46:22;;;;;;;9.02;6.93;;;;;;;;;;5090563;27;98122;-75
2023/06/18 06:49:07;;;;;;;15.13;8.00;;;;;;;;;;5091205;27;98078;-75
2023/06/18 06:51:53;;;;;;;11.15;7.90;;;;;;;;;;5070712;27;98951;-75
2023/06/18 06:54:19;;;;;;;14.27;7.47;;;;;;;;;;5061054;27;98663;-75
2023/06/18 06:56:46;;;;;;;11.95;6.97;;;;;;;;;;5070369;27;99347;-75
2023/06/18 06:59:15;;;;;;;11.85;7.85;;;;;;;;;;5050460;27;101251;-75
2023/06/18 07:01:43;;;;;;;10.80;7.43;;;;;;;;;;5062766;27;98916;-75
2023/06/18 07:04:10;;;;;;;20.10;7.97;;;;;;;;;;5054922;27;99186;-74
2023/06/18 07:06:40;;;;;;;9.18;7.28;;;;;;;;;;5077226;27;98328;-75
2023/06/18 07:09:06;;;;;;;12.50;7.50;;;;;;;;;;5079570;27;99261;-75
2023/06/18 07:11:33;;;;;;;9.60;7.38;;;;;;;;;;5068955;27;99018;-75
2023/06/18 07:14:00;;;;;;;9.25;6.82;;;;;;;;;;5068810;27;99315;-75
2023/06/18 07:16:26;;;;;;;8.23;6.57;;;;;;;;;;5069118;27;99281;-75
2023/06/18 07:18:53;;;;;;;7.43;6.68;;;;;;;;;;5067981;27;98880;-75
2023/06/18 07:21:19;;;;;;;16.00;6.88;;;;;;;;;;5069889;27;98294;-74
2023/06/18 07:23:46;;;;;;;8.63;6.78;;;;;;;;;;5070197;27;99335;-74
2023/06/18 07:26:13;;;;;;;8.27;6.70;;;;;;;;;;5072008;27;99946;-74
2023/06/18 07:28:39;;;;;;;10.73;6.60;;;;;;;;;;5069636;27;99517;-74
2023/06/18 07:31:06;;;;;;;6.82;6.20;;;;;;;;;;5069195;27;100151;-74
2023/06/18 07:33:32;;;;;;;8.68;6.57;;;;;;;;;;5069385;27;98064;-74
2023/06/18 07:35:58;;;;;;;6.90;6.20;;;;;;;;;;5068936;27;98588;-74
2023/06/18 07:38:25;;;;;;;6.88;6.18;;;;;;;;;;5069347;27;99883;-74
2023/06/18 07:40:51;;;;;;;11.85;6.75;;;;;;;;;;5067184;27;98294;-75
2023/06/18 07:43:18;;;;;;;9.23;6.03;;;;;;;;;;5068889;27;98909;-74
2023/06/18 07:45:44;;;;;;;8.20;6.60;;;;;;;;;;5071881;27;100001;-74
2023/06/18 07:48:11;;;;;;;6.95;6.32;;;;;;;;;;5068252;27;99721;-74
2023/06/18 07:50:37;;;;;;;9.48;6.35;;;;;;;;;;5069261;27;100164;-74
2023/06/18 07:53:03;;;;;;;9.48;6.43;;;;;;;;;;5069132;27;98202;-74
2023/06/18 07:55:30;;;;;;;6.35;5.75;;;;;;;;;;5068792;27;98493;-77
2023/06/18 07:57:56;;;;;;;6.60;5.75;;;;;;;;;;5070842;27;100262;-73
2023/06/18 08:00:23;;;;;;;8.85;6.25;;;;;;;;;;5069081;27;98258;-73
2023/06/18 08:02:50;;;;;;;6.38;5.45;;;;;;;;;;5087032;27;98686;-75
2023/06/18 08:05:16;;;;;;;10.52;6.88;;;;;;;;;;5087811;27;98901;-75
2023/06/18 08:07:43;;;;;;;7.57;5.82;;;;;;;;;;5092038;27;98233;-74
2023/06/18 08:10:09;;;;;;;9.07;6.50;;;;;;;;;;5080836;27;100040;-75
2023/06/18 08:12:36;;;;;;;8.55;5.68;;;;;;;;;;5069063;27;98290;-74
2023/06/18 08:15:02;;;;;;;6.63;5.85;;;;;;;;;;5068246;27;99447;-74
2023/06/18 08:17:29;;;;;;;11.00;6.25;;;;;;;;;;5068759;27;100396;-74
2023/06/18 08:19:55;;;;;;;7.35;6.40;;;;;;;;;;5068295;27;98942;-74
2023/06/18 08:22:21;;;;;;;6.03;5.55;;;;;;;;;;5068588;27;99320;-74
2023/06/18 08:24:48;;;;;;;6.72;5.50;;;;;;;;;;5067535;27;99237;-74
2023/06/18 08:27:15;;;;;;;8.60;6.47;;;;;;;;;;5068356;27;98850;-74
2023/06/18 08:29:41;;;;;;;7.05;5.97;;;;;;;;;;5070533;27;99248;-74
2023/06/18 08:32:08;;;;;;;8.05;7.35;;;;;;;;;;5068006;27;98340;-74
2023/06/18 08:34:36;;;;;;;9.30;6.70;;;;;;;;;;5085279;27;99433;-74
2023/06/18 08:37:03;;;;;;;9.02;5.72;;;;;;;;;;5087917;27;99960;-74
2023/06/18 08:39:30;;;;;;;14.90;7.05;;;;;;;;;;5089148;27;98525;-74
2023/06/18 08:42:00;;;;;;;8.43;5.75;;;;;;;;;;5080027;27;99371;-75
2023/06/18 08:44:27;;;;;;;7.88;6.15;;;;;;;;;;5067107;27;98937;-74
2023/06/18 08:47:00;;;;;;;7.57;5.70;;;;;;;;;;5069438;27;98233;-76
2023/06/18 08:49:27;;;;;;;14.40;5.72;;;;;;;;;;5067483;27;98693;-75
2023/06/18 08:51:54;;;;;;;7.07;5.68;;;;;;;;;;5069919;27;98956;-75
2023/06/18 08:54:25;;;;;;;6.30;5.75;;;;;;;;;;5049654;27;98566;-75
2023/06/18 08:56:55;;;;;;;8.38;5.63;;;;;;;;;;5068001;27;99129;-75
2023/06/18 08:59:22;;;;;;;7.00;6.30;;;;;;;;;;5067561;27;98314;-75
2023/06/18 09:01:52;;;;;;;7.78;6.30;;;;;;;;;;5049813;27;100607;-75
2023/06/18 09:04:19;;;;;;;10.18;6.80;;;;;;;;;;5066961;27;100010;-75
2023/06/18 09:06:46;;;;;;;6.47;5.95;;;;;;;;;;5067343;27;98292;-74
2023/06/18 09:09:15;;;;;;;8.93;5.30;;;;;;;;;;5049889;27;101014;-73
2023/06/18 09:11:42;;;;;;;9.85;6.35;;;;;;;;;;5066747;27;99504;-74
2023/06/18 09:14:08;;;;;;;9.73;5.18;;;;;;;;;;5070712;27;98233;-74
2023/06/18 09:16:35;;;;;;;7.18;5.78;;;;;;;;;;5067458;27;99058;-74
2023/06/18 09:19:01;;;;;;;17.08;6.38;;;;;;;;;;5065885;27;98533;-73
2023/06/18 09:21:33;;;;;;;6.30;5.10;;;;;;;;;;5068757;27;99350;-74
2023/06/18 09:24:00;;;;;;;5.53;5.03;;;;;;;;;;5067082;27;100097;-75
2023/06/18 09:26:27;;;;;;;10.35;4.90;;;;;;;;;;5067537;27;98298;-74
2023/06/18 09:28:55;;;;;;;5.85;5.32;;;;;;;;;;5066912;27;98550;-74
2023/06/18 09:31:28;;;;;;;9.07;4.82;;;;;;;;;;5066607;27;98939;-74
2023/06/18 09:33:54;;;;;;;7.25;5.10;;;;;;;;;;5066996;27;98426;-74
2023/06/18 09:36:24;;;;;;;5.75;5.25;;;;;;;;;;5071203;27;98799;-74
2023/06/18 09:38:52;;;;;;;5.78;4.97;;;;;;;;;;5067363;27;98256;-73
2023/06/18 09:41:19;;;;;;;7.70;5.43;;;;;;;;;;5066201;27;98784;-74
2023/06/18 09:43:47;;;;;;;13.00;5.85;;;;;;;;;;5066004;27;99083;-73
2023/06/18 09:46:15;;;;;;;7.55;5.25;;;;;;;;;;5066800;27;98213;-74
2023/06/18 09:48:44;;;;;;;5.63;4.30;;;;;;;;;;5049246;27;100008;-74
2023/06/18 09:51:14;;;;;;;5.00;4.60;;;;;;;;;;5048738;27;101714;-73
2023/06/18 09:53:43;;;;;;;5.15;4.68;;;;;;;;;;5048523;27;98254;-74
2023/06/18 09:56:10;;;;;;;423.77;23.77;;;;;;;;;;5070349;27;99478;-74
2023/06/18 09:58:41;;;;;;;28.38;5.68;;;;;;;;;;5067416;27;98591;-74
2023/06/18 10:01:08;;;;;;;7.53;3.93;;;;;;;;;;5066229;27;98637;-74
2023/06/18 10:03:35;;;;;;;4.72;4.35;;;;;;;;;;5066847;27;99045;-74
2023/06/18 10:06:10;;;;;;;5.43;4.90;;;;;;;;;;5066231;27;98286;-74
2023/06/18 10:08:40;;;;;;;9.80;5.22;;;;;;;;;;5025546;27;99001;-74
2023/06/18 10:11:08;;;;;;;4.77;4.37;;;;;;;;;;5029229;28;99985;-74
2023/06/18 10:13:44;;;;;;;20.67;4.43;;;;;;;;;;5031071;27;98216;-74
2023/06/18 10:16:12;;;;;;;85.10;8.75;;;;;;;;;;5030184;27;99649;-75
2023/06/18 10:18:41;;;;;;;26.10;5.43;;;;;;;;;;5052824;27;98824;-76
2023/06/18 10:21:07;;;;;;;10.32;4.70;;;;;;;;;;5049423;27;98779;-73
2023/06/18 10:23:34;;;;;;;15.50;4.88;;;;;;;;;;5049319;27;99841;-74
2023/06/18 10:26:00;;;;;;;15.02;5.07;;;;;;;;;;5050334;27;98517;-73
2023/06/18 10:28:27;;;;;;;98.93;10.07;;;;;;;;;;5050294;27;98705;-73
2023/06/18 10:30:54;;;;;;;9.20;5.03;;;;;;;;;;5049034;27;99610;-73
2023/06/18 10:33:20;;;;;;;8.80;5.28;;;;;;;;;;5049487;27;98266;-73
2023/06/18 10:35:47;;;;;;;6.93;4.85;;;;;;;;;;5049630;27;99886;-73
2023/06/18 10:38:14;;;;;;;5.57;4.90;;;;;;;;;;5049921;27;98881;-73
2023/06/18 10:40:42;;;;;;;5.90;5.40;;;;;;;;;;5053480;27;98817;-74
2023/06/18 10:43:09;;;;;;;6.65;5.30;;;;;;;;;;5048919;27;99191;-73
2023/06/18 10:45:35;;;;;;;7.18;4.28;;;;;;;;;;5050252;27;98031;-73
2023/06/18 10:48:15;;;;;;;5.03;4.15;;;;;;;;;;5032737;27;98422;-73
2023/06/18 10:51:04;;;;;;;4.40;4.10;;;;;;;;;;5028765;28;98913;-73
2023/06/18 10:53:31;;;;;;;6.55;4.57;;;;;;;;;;5029734;28;98607;-73
2023/06/18 10:56:01;;;;;;;4.85;4.07;;;;;;;;;;5029353;27;99395;-73
2023/06/18 10:58:31;;;;;;;4.93;4.32;;;;;;;;;;5027788;27;98991;-73
2023/06/18 11:00:58;;;;;;;6.70;4.43;;;;;;;;;;5028847;27;98281;-73
2023/06/18 11:03:35;;;;;;;8.10;4.28;;;;;;;;;;5031139;28;98876;-73
2023/06/18 11:06:03;;;;;;;5.35;4.43;;;;;;;;;;5028304;27;98403;-73
2023/06/18 11:08:31;;;;;;;4.63;4.07;;;;;;;;;;5068382;27;98689;-73
2023/06/18 11:11:00;;;;;;;9.20;4.38;;;;;;;;;;5068334;27;98969;-73
2023/06/18 11:13:33;;;;;;;4.65;4.22;;;;;;;;;;5069537;27;98298;-73
2023/06/18 11:16:02;;;;;;;7.45;4.65;;;;;;;;;;5069805;27;98557;-73
2023/06/18 11:18:30;;;;;;;5.28;4.00;;;;;;;;;;5068576;27;99000;-73
2023/06/18 11:21:02;;;;;;;4.63;4.15;;;;;;;;;;5067070;27;98517;-72
2023/06/18 11:23:34;;;;;;;7.20;4.50;;;;;;;;;;5063885;27;98594;-73
2023/06/18 11:26:00;;;;;;;11.40;4.75;;;;;;;;;;5071872;27;100163;-73
2023/06/18 11:28:27;;;;;;;5.05;4.65;;;;;;;;;;5069455;27;98530;-73
2023/06/18 11:31:00;;;;;;;7.85;4.65;;;;;;;;;;5068766;27;99027;-73
2023/06/18 11:33:28;;;;;;;14.10;5.82;;;;;;;;;;5034009;27;98215;-73
2023/06/18 11:36:13;;;;;;;10.55;5.30;;;;;;;;;;5069110;27;98580;-72
2023/06/18 11:38:45;;;;;;;7.18;4.70;;;;;;;;;;5066772;27;100096;-73
2023/06/18 11:41:24;;;;;;;6.35;5.07;;;;;;;;;;5051273;27;98216;-74
2023/06/18 11:43:52;;;;;;;10.15;5.22;;;;;;;;;;5069100;27;98705;-73
2023/06/18 11:46:36;;;;;;;9.98;4.97;;;;;;;;;;5070795;27;100789;-73
2023/06/18 11:49:02;;;;;;;5.50;5.10;;;;;;;;;;5065347;27;98219;-73
2023/06/18 11:51:30;;;;;;;10.30;5.07;;;;;;;;;;5048893;27;99553;-73
2023/06/18 11:54:00;;;;;;;5.38;4.88;;;;;;;;;;5068616;27;98391;-74
2023/06/18 11:56:28;;;;;;;7.50;5.13;;;;;;;;;;5069472;27;99867;-74
2023/06/18 11:58:55;;;;;;;5.60;5.10;;;;;;;;;;5069189;27;99435;-74
2023/06/18 12:01:28;;;;;;;4.78;4.38;;;;;;;;;;5050308;27;98237;-74
2023/06/18 12:04:15;;;;;;;5.82;5.22;;;;;;;;;;5069188;27;99575;-74
2023/06/18 12:06:47;;;;;;;4.95;4.50;;;;;;;;;;5067587;27;99293;-74
2023/06/18 12:09:16;;;;;;;5.25;4.45;;;;;;;;;;5070444;27;98239;-74
2023/06/18 12:11:44;;;;;;;5.63;4.50;;;;;;;;;;5067782;27;99071;-74
2023/06/18 12:14:14;;;;;;;14.85;4.90;;;;;;;;;;5067094;27;98325;-74
2023/06/18 12:16:45;;;;;;;5.27;4.37;;;;;;;;;;5068655;27;98753;-74
2023/06/18 12:19:13;;;;;;;4.90;4.53;;;;;;;;;;5067773;27;98963;-73
2023/06/18 12:21:40;;;;;;;6.88;4.90;;;;;;;;;;5068005;27;98300;-74
2023/06/18 12:24:07;;;;;;;4.90;4.50;;;;;;;;;;5068051;27;98722;-73
2023/06/18 12:26:36;;;;;;;3.92;3.60;;;;;;;;;;5068663;27;100392;-73
2023/06/18 12:29:05;;;;;;;11.27;7.15;;;;;;;;;;5049547;27;98266;-73
2023/06/18 12:31:32;;;;;;;7.03;5.10;;;;;;;;;;5071453;27;98452;-73
2023/06/18 12:33:59;;;;;;;6.30;4.50;;;;;;;;;;5068060;27;98117;-74
2023/06/18 12:36:26;;;;;;;9.68;8.05;;;;;;;;;;5067110;27;98918;-73
2023/06/18 12:38:52;;;;;;;12.30;10.35;;;;;;;;;;5067751;27;100336;-73
2023/06/18 12:41:20;;;;;;;27.23;21.73;;;;;;;;;;5068406;27;98127;-73
2023/06/18 12:43:48;;;;;;;9.27;6.65;;;;;;;;;;5087237;27;99597;-73
2023/06/18 12:46:27;;;;;;;7.03;6.25;;;;;;;;;;5088244;27;99099;-73
2023/06/18 12:48:54;;;;;;;7.32;5.28;;;;;;;;;;5089117;27;98496;-73
2023/06/18 12:51:21;;;;;;;6.78;5.97;;;;;;;;;;5087537;27;98441;-73
2023/06/18 12:53:47;;;;;;;6.75;6.15;;;;;;;;;;5091689;27;98073;-73
2023/06/18 12:56:22;;;;;;;6.32;5.72;;;;;;;;;;5087513;27;98635;-73
2023/06/18 12:58:50;;;;;;;9.40;5.63;;;;;;;;;;5076935;27;99429;-73
2023/06/18 13:01:17;;;;;;;6.88;5.72;;;;;;;;;;5068063;27;98153;-73
2023/06/18 13:03:44;;;;;;;6.18;5.60;;;;;;;;;;5066946;27;99717;-73
2023/06/18 13:06:11;;;;;;;8.57;5.82;;;;;;;;;;5066651;27;99064;-74
2023/06/18 13:08:37;;;;;;;8.10;5.45;;;;;;;;;;5068427;27;98264;-72
2023/06/18 13:11:05;;;;;;;8.10;6.32;;;;;;;;;;5067031;27;98141;-73
2023/06/18 13:13:32;;;;;;;7.53;5.88;;;;;;;;;;5067783;27;98949;-73
2023/06/18 13:15:58;;;;;;;11.07;5.88;;;;;;;;;;5071184;27;98314;-73
2023/06/18 13:18:25;;;;;;;10.25;6.00;;;;;;;;;;5066249;27;99007;-73
2023/06/18 13:20:54;;;;;;;9.38;5.20;;;;;;;;;;5070616;27;98290;-72
2023/06/18 13:23:21;;;;;;;9.55;6.43;;;;;;;;;;5068226;27;99378;-72
2023/06/18 13:25:47;;;;;;;11.65;5.43;;;;;;;;;;5066339;27;99361;-73
2023/06/18 13:28:15;;;;;;;6.03;5.18;;;;;;;;;;5067030;27;98268;-73
2023/06/18 13:30:42;;;;;;;8.52;7.72;;;;;;;;;;5068151;27;99691;-73
2023/06/18 13:33:08;;;;;;;36.45;7.63;;;;;;;;;;5066563;27;99975;-73
2023/06/18 13:35:35;;;;;;;7.93;5.40;;;;;;;;;;5076722;27;98227;-73
2023/06/18 13:38:01;;;;;;;8.43;5.75;;;;;;;;;;5091345;27;99903;-73
2023/06/18 13:40:28;;;;;;;6.88;4.97;;;;;;;;;;5087744;27;98457;-73
2023/06/18 13:42:54;;;;;;;4.90;4.60;;;;;;;;;;5087894;27;98784;-73
2023/06/18 13:45:21;;;;;;;7.30;5.55;;;;;;;;;;5087531;27;100382;-73
2023/06/18 13:47:47;;;;;;;6.45;4.82;;;;;;;;;;5086620;27;98792;-73
2023/06/18 13:50:14;;;;;;;7.07;5.43;;;;;;;;;;5087345;27;98989;-73
2023/06/18 13:52:40;;;;;;;8.80;4.80;;;;;;;;;;5085964;27;98832;-73
2023/06/18 13:55:07;;;;;;;7.07;4.95;;;;;;;;;;5088084;27;98797;-73
2023/06/18 13:57:34;;;;;;;15.30;6.00;;;;;;;;;;5086860;27;98528;-73
2023/06/18 14:00:00;;;;;;;8.68;6.20;;;;;;;;;;5070916;27;98235;-73
2023/06/18 14:02:30;;;;;;;6.97;5.13;;;;;;;;;;5067731;27;98670;-73
2023/06/18 14:04:57;;;;;;;6.95;5.25;;;;;;;;;;5066824;27;98828;-73
2023/06/18 14:07:24;;;;;;;8.10;5.10;;;;;;;;;;5065402;27;98542;-73
2023/06/18 14:09:51;;;;;;;4.90;4.40;;;;;;;;;;5067284;27;98533;-73
2023/06/18 14:12:17;;;;;;;4.93;4.45;;;;;;;;;;5066776;27;99898;-73
2023/06/18 14:14:44;;;;;;;3.92;3.50;;;;;;;;;;5066504;27;98214;-74
2023/06/18 14:17:11;;;;;;;4.07;3.78;;;;;;;;;;5066180;27;99712;-74
2023/06/18 14:19:37;;;;;;;5.00;3.78;;;;;;;;;;5070533;27;100055;-74
2023/06/18 14:22:05;;;;;;;5.55;3.95;;;;;;;;;;5066068;27;99781;-74
2023/06/18 14:24:31;;;;;;;4.78;3.90;;;;;;;;;;5067089;27;99957;-74
2023/06/18 14:26:58;;;;;;;3.60;3.33;;;;;;;;;;5067158;27;98143;-74
2023/06/18 14:29:25;;;;;;;5.22;3.55;;;;;;;;;;5077792;27;99658;-74
2023/06/18 14:31:51;;;;;;;5.25;3.10;;;;;;;;;;5079962;27;99954;-74
2023/06/18 14:34:18;;;;;;;6.18;3.50;;;;;;;;;;5067065;27;98836;-74
2023/06/18 14:36:44;;;;;;;4.93;3.72;;;;;;;;;;5066308;27;99639;-73
2023/06/18 14:39:11;;;;;;;4.65;3.45;;;;;;;;;;5065767;27;99174;-73
2023/06/18 14:41:37;;;;;;;3.97;3.60;;;;;;;;;;5068879;27;98300;-74
2023/06/18 14:44:04;;;;;;;3.63;3.42;;;;;;;;;;5065424;27;100141;-74